createdAt,value
2019-04-04T00:01:12.552Z,25.57
2019-04-04T00:04:08.214Z,26.55
2019-04-04T00:07:03.867Z,25.05
2019-04-04T00:09:59.818Z,27.90
2019-04-04T00:12:58.160Z,21.60
2019-04-04T00:15:55.343Z,23.73
2019-04-04T00:18:51.371Z,21.85
2019-04-04T00:21:48.292Z,19.92
2019-04-04T00:24:44.896Z,20.57
2019-04-04T00:27:43.676Z,25.68
2019-04-04T00:30:38.667Z,25.72
2019-04-04T00:33:35.267Z,27.77
2019-04-04T00:36:33.878Z,22.20
2019-04-04T00:39:29.338Z,24.20
2019-04-04T00:42:26.112Z,22.30
2019-04-04T00:45:22.752Z,23.05
2019-04-04T00:48:19.730Z,28.65
2019-04-04T00:51:16.807Z,24.75
2019-04-04T00:54:14.022Z,23.12
2019-04-04T00:57:11.525Z,25.30
2019-04-04T01:00:09.573Z,20.80
2019-04-04T01:03:05.991Z,22.22
2019-04-04T01:06:03.483Z,20.72
2019-04-04T01:09:01.157Z,21.40
2019-04-04T01:11:58.578Z,22.20
2019-04-04T01:14:58.133Z,24.90
2019-04-04T01:17:54.221Z,27.30
2019-04-04T01:20:51.319Z,23.25
2019-04-04T01:23:47.377Z,17.40
2019-04-04T01:26:44.658Z,22.10
2019-04-04T01:29:41.542Z,24.10
2019-04-04T01:32:38.613Z,20.80
2019-04-04T01:35:35.178Z,20.12
2019-04-04T01:38:32.946Z,28.17
2019-04-04T01:41:30.019Z,19.65
2019-04-04T01:44:25.894Z,17.95
2019-04-04T01:47:22.853Z,22.15
2019-04-04T01:50:22.539Z,22.55
2019-04-04T01:53:17.111Z,21.75
2019-04-04T01:56:13.999Z,20.72
2019-04-04T01:59:10.250Z,22.52
2019-04-04T02:02:09.068Z,21.07
2019-04-04T02:05:06.792Z,25.10
2019-04-04T02:08:03.887Z,20.88
2019-04-04T02:11:01.857Z,19.57
2019-04-04T02:13:58.559Z,22.05
2019-04-04T02:16:55.999Z,21.75
2019-04-04T02:19:52.114Z,22.58
2019-04-04T02:22:49.719Z,19.92
2019-04-04T02:25:45.995Z,19.45
2019-04-04T02:28:42.713Z,16.82
2019-04-04T02:31:43.354Z,20.50
2019-04-04T02:34:40.357Z,21.57
2019-04-04T02:37:37.312Z,21.30
2019-04-04T02:40:34.329Z,20.30
2019-04-04T02:43:30.595Z,19.87
2019-04-04T02:46:27.860Z,21.52
2019-04-04T02:49:27.938Z,20.82
2019-04-04T02:52:23.359Z,19.75
2019-04-04T02:55:20.373Z,19.92
2019-04-04T02:58:17.261Z,17.20
2019-04-04T03:01:13.409Z,21.82
2019-04-04T03:04:13.572Z,18.52
2019-04-04T03:07:08.906Z,19.42
2019-04-04T03:10:06.974Z,17.20
2019-04-04T03:13:03.703Z,19.55
2019-04-04T03:16:01.111Z,16.02
2019-04-04T03:18:57.047Z,20.72
2019-04-04T03:21:55.933Z,18.60
2019-04-04T03:24:55.749Z,19.40
2019-04-04T03:27:52.682Z,18.23
2019-04-04T03:31:00.914Z,17.77
2019-04-04T03:33:46.448Z,19.57
2019-04-04T03:36:42.912Z,17.77
2019-04-04T03:39:40.493Z,18.02
2019-04-04T03:42:36.957Z,17.40
2019-04-04T03:45:34.801Z,16.62
2019-04-04T03:48:30.757Z,17.75
2019-04-04T03:51:28.408Z,15.95
2019-04-04T03:54:26.719Z,17.77
2019-04-04T03:57:22.755Z,20.20
2019-04-04T04:00:29.218Z,22.40
2019-04-04T04:03:25.428Z,22.05
2019-04-04T04:06:21.612Z,18.00
2019-04-04T04:09:18.547Z,15.55
2019-04-04T04:12:15.089Z,20.90
2019-04-04T04:15:12.681Z,18.80
2019-04-04T04:18:08.675Z,16.93
2019-04-04T04:21:09.738Z,19.73
2019-04-04T04:24:02.262Z,16.40
2019-04-04T04:26:58.729Z,17.35
2019-04-04T04:29:55.432Z,15.85
2019-04-04T04:32:55.817Z,16.15
2019-04-04T04:35:49.340Z,19.77
2019-04-04T04:38:45.025Z,19.17
2019-04-04T04:41:42.142Z,17.00
2019-04-04T04:44:39.072Z,16.65
2019-04-04T04:47:35.915Z,15.48
2019-04-04T04:50:31.821Z,20.88
2019-04-04T04:53:29.861Z,21.15
2019-04-04T04:56:26.621Z,17.52
2019-04-04T04:59:23.434Z,17.10
2019-04-04T05:02:25.287Z,17.35
2019-04-04T05:05:22.438Z,19.37
2019-04-04T05:08:18.466Z,21.42
2019-04-04T05:11:14.816Z,19.75
2019-04-04T05:14:13.939Z,18.55
2019-04-04T05:17:10.731Z,18.98
2019-04-04T05:20:09.551Z,23.05
2019-04-04T05:23:06.967Z,19.17
2019-04-04T05:26:03.356Z,24.37
2019-04-04T05:28:59.272Z,23.45
2019-04-04T05:31:56.162Z,24.57
2019-04-04T05:34:52.856Z,19.92
2019-04-04T05:37:48.776Z,24.90
2019-04-04T05:40:45.253Z,25.45
2019-04-04T05:43:41.010Z,19.82
2019-04-04T05:46:36.491Z,20.80
2019-04-04T05:49:33.250Z,22.87
2019-04-04T05:52:30.461Z,25.02
2019-04-04T05:55:27.271Z,31.33
2019-04-04T05:58:26.833Z,32.05
2019-04-04T06:01:23.441Z,25.17
2019-04-04T06:04:19.623Z,23.35
2019-04-04T06:07:16.899Z,23.02
2019-04-04T06:10:13.086Z,24.05
2019-04-04T06:13:09.923Z,29.18
2019-04-04T06:16:06.282Z,24.92
2019-04-04T06:19:03.657Z,25.75
2019-04-04T06:22:02.580Z,18.60
2019-04-04T06:25:00.225Z,22.45
2019-04-04T06:27:56.327Z,17.73
2019-04-04T06:30:54.320Z,18.23
2019-04-04T06:33:50.132Z,18.00
2019-04-04T06:36:48.941Z,19.87
2019-04-04T06:39:44.776Z,18.80
2019-04-04T06:42:41.937Z,15.72
2019-04-04T06:45:38.610Z,14.93
2019-04-04T06:48:36.710Z,13.63
2019-04-04T06:51:32.882Z,11.03
2019-04-04T06:54:29.344Z,14.27
2019-04-04T06:57:25.110Z,11.40
2019-04-04T07:00:21.720Z,10.97
2019-04-04T07:03:17.179Z,12.47
2019-04-04T07:06:13.864Z,11.43
2019-04-04T07:09:09.554Z,12.03
2019-04-04T07:12:06.755Z,11.00
2019-04-04T07:15:03.337Z,11.33
2019-04-04T07:17:59.852Z,9.40
2019-04-04T07:20:55.887Z,10.83
2019-04-04T07:23:51.468Z,9.80
2019-04-04T07:26:48.344Z,16.40
2019-04-04T07:29:44.915Z,10.07
2019-04-04T07:32:41.770Z,10.87
2019-04-04T07:35:39.373Z,12.17
2019-04-04T07:38:36.173Z,10.07
2019-04-04T07:41:33.792Z,12.53
2019-04-04T07:44:29.504Z,11.07
2019-04-04T07:47:26.167Z,12.03
2019-04-04T07:50:24.172Z,9.10
2019-04-04T07:53:21.908Z,11.83
2019-04-04T07:56:19.591Z,8.57
2019-04-04T07:59:15.598Z,12.00
2019-04-04T08:02:12.350Z,10.90
2019-04-04T08:05:07.936Z,9.20
2019-04-04T08:08:03.328Z,9.30
2019-04-04T08:10:59.094Z,9.10
2019-04-04T08:13:54.723Z,10.57
2019-04-04T08:16:50.435Z,8.80
2019-04-04T08:19:58.867Z,13.07
2019-04-04T08:22:43.888Z,9.60
2019-04-04T08:25:44.147Z,11.10
2019-04-04T08:28:39.873Z,9.37
2019-04-04T08:31:35.448Z,8.77
2019-04-04T08:34:31.991Z,7.67
2019-04-04T08:37:28.189Z,8.87
2019-04-04T08:40:23.975Z,7.90
2019-04-04T08:43:20.726Z,7.63
2019-04-04T08:46:19.726Z,6.80
2019-04-04T08:49:13.934Z,10.23
2019-04-04T08:52:16.815Z,6.70
2019-04-04T08:55:10.246Z,7.43
2019-04-04T08:58:07.091Z,5.80
2019-04-04T09:01:03.732Z,9.40
2019-04-04T09:04:00.078Z,7.93
2019-04-04T09:06:55.960Z,9.33
2019-04-04T09:09:51.694Z,7.63
2019-04-04T09:12:47.915Z,7.73
2019-04-04T09:15:44.008Z,5.40
2019-04-04T09:18:42.124Z,8.10
2019-04-04T09:21:38.286Z,6.07
2019-04-04T09:24:34.684Z,6.10
2019-04-04T09:27:31.149Z,7.17
2019-04-04T09:30:27.740Z,8.97
2019-04-04T09:33:24.156Z,5.10
2019-04-04T09:36:19.642Z,12.87
2019-04-04T09:39:14.868Z,5.03
2019-04-04T09:42:10.612Z,5.23
2019-04-04T09:45:06.820Z,5.53
2019-04-04T09:48:05.733Z,6.30
2019-04-04T09:51:01.640Z,5.70
2019-04-04T09:53:56.886Z,5.23
2019-04-04T09:56:52.905Z,5.83
2019-04-04T09:59:50.169Z,6.43
2019-04-04T10:02:45.766Z,6.80
2019-04-04T10:05:42.207Z,7.57
2019-04-04T10:08:38.914Z,6.90
2019-04-04T10:11:35.916Z,5.50
2019-04-04T10:14:32.510Z,7.83
2019-04-04T10:17:29.931Z,6.23
2019-04-04T10:20:25.691Z,8.10
2019-04-04T10:23:22.522Z,6.13
2019-04-04T10:26:17.828Z,5.70
2019-04-04T10:29:15.567Z,5.73
2019-04-04T10:32:11.605Z,5.40
2019-04-04T10:35:10.054Z,5.60
2019-04-04T10:38:09.656Z,5.00
2019-04-04T10:41:07.640Z,10.17
2019-04-04T10:44:03.465Z,6.53
2019-04-04T10:47:01.628Z,6.83
2019-04-04T10:49:58.596Z,7.00
2019-04-04T10:52:54.290Z,7.13
2019-04-04T10:55:49.598Z,7.93
2019-04-04T10:58:47.922Z,5.87
2019-04-04T11:01:43.597Z,6.33
2019-04-04T11:04:43.378Z,6.03
2019-04-04T11:07:38.824Z,5.97
2019-04-04T11:10:35.389Z,5.23
2019-04-04T11:13:34.040Z,5.97
2019-04-04T11:16:31.101Z,7.10
2019-04-04T11:19:31.291Z,6.87
2019-04-04T11:22:24.018Z,5.50
2019-04-04T11:25:20.607Z,6.17
2019-04-04T11:28:15.864Z,6.13
2019-04-04T11:31:12.504Z,5.77
2019-04-04T11:34:09.044Z,8.00
2019-04-04T11:37:05.035Z,6.13
2019-04-04T11:40:01.643Z,7.57
2019-04-04T11:42:57.336Z,6.93
2019-04-04T11:45:54.000Z,6.53
2019-04-04T11:48:51.624Z,6.10
2019-04-04T11:51:48.009Z,6.60
2019-04-04T11:55:03.708Z,6.50
2019-04-04T11:57:59.041Z,5.93
2019-04-04T12:00:58.425Z,6.33
2019-04-04T12:03:54.944Z,8.70
2019-04-04T12:06:53.970Z,6.30
2019-04-04T12:10:06.496Z,5.87
2019-04-04T12:12:52.476Z,5.90
2019-04-04T12:15:48.392Z,6.47
2019-04-04T12:18:46.059Z,6.20
2019-04-04T12:21:42.519Z,5.70
2019-04-04T12:24:41.476Z,6.77
2019-04-04T12:27:37.534Z,6.90
2019-04-04T12:30:33.861Z,8.03
2019-04-04T12:33:31.574Z,9.10
2019-04-04T12:36:29.544Z,6.83
2019-04-04T12:39:25.782Z,7.83
2019-04-04T12:42:21.734Z,6.77
2019-04-04T12:45:17.713Z,8.13
2019-04-04T12:48:15.051Z,8.93
2019-04-04T12:51:11.778Z,9.57
2019-04-04T12:54:10.892Z,8.77
2019-04-04T12:57:07.503Z,6.57
2019-04-04T13:00:05.701Z,7.80
2019-04-04T13:03:02.849Z,8.20
2019-04-04T13:06:03.025Z,6.30
2019-04-04T13:08:59.085Z,7.80
2019-04-04T13:11:55.541Z,7.63
2019-04-04T13:15:00.229Z,10.70
2019-04-04T13:17:56.717Z,7.47
2019-04-04T13:20:53.376Z,8.10
2019-04-04T13:23:48.746Z,9.13
2019-04-04T13:26:44.839Z,7.30
2019-04-04T13:29:46.185Z,9.93
2019-04-04T13:32:43.383Z,9.73
2019-04-04T13:35:41.873Z,7.83
2019-04-04T13:38:40.422Z,10.20
2019-04-04T13:41:37.264Z,7.57
2019-04-04T13:44:35.229Z,7.13
2019-04-04T13:47:30.935Z,9.13
2019-04-04T13:50:26.859Z,7.87
2019-04-04T13:53:25.204Z,10.37
2019-04-04T13:56:20.178Z,10.13
2019-04-04T13:59:16.477Z,7.73
2019-04-04T14:02:13.190Z,12.50
2019-04-04T14:05:13.759Z,11.37
2019-04-04T14:08:07.172Z,8.53
2019-04-04T14:11:03.566Z,7.30
2019-04-04T14:13:59.952Z,8.23
2019-04-04T14:16:56.192Z,10.57
2019-04-04T14:19:51.351Z,7.97
2019-04-04T14:22:47.679Z,8.27
2019-04-04T14:25:44.171Z,7.53
2019-04-04T14:28:41.768Z,6.83
2019-04-04T14:31:37.080Z,9.70
2019-04-04T14:34:33.417Z,9.30
2019-04-04T14:37:32.220Z,8.47
2019-04-04T14:40:28.644Z,7.27
2019-04-04T14:43:25.256Z,9.00
2019-04-04T14:46:21.120Z,8.57
2019-04-04T14:49:16.272Z,8.33
2019-04-04T14:52:11.870Z,19.33
2019-04-04T14:55:08.701Z,13.30
2019-04-04T14:58:04.504Z,11.10
2019-04-04T15:01:00.940Z,8.57
2019-04-04T15:03:58.451Z,9.27
2019-04-04T15:06:54.988Z,8.83
2019-04-04T15:09:51.338Z,8.60
2019-04-04T15:12:47.542Z,6.87
2019-04-04T15:16:13.287Z,12.20
2019-04-04T15:19:10.508Z,10.37
2019-04-04T15:22:06.650Z,9.80
2019-04-04T15:25:02.397Z,8.33
2019-04-04T15:27:58.906Z,7.77
2019-04-04T15:30:54.625Z,7.80
2019-04-04T15:33:52.571Z,8.83
2019-04-04T15:36:50.417Z,12.73
2019-04-04T15:39:47.330Z,7.60
2019-04-04T15:42:45.679Z,6.87
2019-04-04T15:45:42.283Z,9.03
2019-04-04T15:48:38.479Z,7.13
2019-04-04T15:51:33.941Z,9.33
2019-04-04T15:54:31.893Z,7.10
2019-04-04T15:57:28.125Z,7.90
2019-04-04T16:00:26.583Z,9.57
2019-04-04T16:03:22.218Z,8.50
2019-04-04T16:06:17.548Z,10.77
2019-04-04T16:09:13.181Z,8.53
2019-04-04T16:12:09.809Z,11.80
2019-04-04T16:15:05.903Z,9.73
2019-04-04T16:18:02.645Z,14.07
2019-04-04T16:20:58.399Z,8.60
2019-04-04T16:23:55.042Z,10.77
2019-04-04T16:26:51.578Z,9.60
2019-04-04T16:29:48.528Z,13.70
2019-04-04T16:32:44.000Z,8.60
2019-04-04T16:35:40.364Z,14.83
2019-04-04T16:38:36.756Z,9.40
2019-04-04T16:41:32.517Z,8.43
2019-04-04T16:44:28.392Z,10.80
2019-04-04T16:47:24.173Z,15.53
2019-04-04T16:50:21.495Z,10.50
2019-04-04T16:53:17.330Z,11.60
2019-04-04T16:56:13.260Z,13.80
2019-04-04T16:59:09.315Z,11.30
2019-04-04T17:02:05.192Z,12.57
2019-04-04T17:05:04.394Z,8.77
2019-04-04T17:08:01.281Z,12.40
2019-04-04T17:10:56.948Z,9.73
2019-04-04T17:13:53.323Z,14.10
2019-04-04T17:16:49.886Z,13.03
2019-04-04T17:19:46.728Z,11.57
2019-04-04T17:22:43.208Z,13.57
2019-04-04T17:25:39.575Z,9.77
2019-04-04T17:28:35.825Z,9.37
2019-04-04T17:31:31.750Z,16.03
2019-04-04T17:34:28.480Z,12.80
2019-04-04T17:37:25.241Z,10.73
2019-04-04T17:40:23.141Z,14.83
2019-04-04T17:43:19.927Z,9.10
2019-04-04T17:46:15.965Z,14.80
2019-04-04T17:49:12.844Z,8.83
2019-04-04T17:52:09.108Z,7.47
2019-04-04T17:55:06.659Z,9.17
2019-04-04T17:58:04.595Z,9.03
2019-04-04T18:01:01.439Z,9.93
2019-04-04T18:04:00.013Z,10.53
2019-04-04T18:06:59.635Z,10.43
2019-04-04T18:09:56.239Z,12.40
2019-04-04T18:12:52.142Z,11.23
2019-04-04T18:15:47.607Z,10.37
2019-04-04T18:18:43.255Z,9.73
2019-04-04T18:21:39.454Z,8.73
2019-04-04T18:24:35.941Z,8.50
2019-04-04T18:27:31.588Z,13.03
2019-04-04T18:30:27.862Z,9.17
2019-04-04T18:33:24.218Z,12.17
2019-04-04T18:36:23.198Z,12.50
2019-04-04T18:39:19.534Z,9.20
2019-04-04T18:42:16.364Z,10.90
2019-04-04T18:45:15.363Z,11.03
2019-04-04T18:48:11.001Z,11.83
2019-04-04T18:51:07.626Z,10.97
2019-04-04T18:54:02.854Z,13.33
2019-04-04T18:56:58.429Z,10.57
2019-04-04T18:59:54.811Z,9.97
2019-04-04T19:02:51.251Z,13.87
2019-04-04T19:05:47.638Z,11.40
2019-04-04T19:08:45.838Z,9.80
2019-04-04T19:11:43.930Z,10.43
2019-04-04T19:14:40.863Z,13.43
2019-04-04T19:17:36.669Z,11.90
2019-04-04T19:20:33.599Z,13.13
2019-04-04T19:23:30.040Z,12.27
2019-04-04T19:26:26.823Z,10.10
2019-04-04T19:29:23.336Z,11.83
2019-04-04T19:32:23.115Z,14.23
2019-04-04T19:35:19.752Z,13.33
2019-04-04T19:38:16.751Z,12.30
2019-04-04T19:41:13.282Z,14.83
2019-04-04T19:44:08.744Z,10.40
2019-04-04T19:47:06.075Z,10.60
2019-04-04T19:50:06.187Z,12.57
2019-04-04T19:53:03.045Z,12.17
2019-04-04T19:55:59.585Z,11.27
2019-04-04T19:58:55.957Z,15.20
2019-04-04T20:01:53.443Z,12.13
2019-04-04T20:04:49.740Z,9.93
2019-04-04T20:07:46.060Z,15.27
2019-04-04T20:10:42.232Z,11.17
2019-04-04T20:13:40.145Z,18.20
2019-04-04T20:16:36.045Z,11.00
2019-04-04T20:19:32.811Z,11.57
2019-04-04T20:22:29.439Z,11.03
2019-04-04T20:25:25.119Z,10.77
2019-04-04T20:28:22.664Z,11.00
2019-04-04T20:31:19.347Z,8.90
2019-04-04T20:34:15.972Z,14.38
2019-04-04T20:37:12.091Z,12.28
2019-04-04T20:40:08.765Z,14.60
2019-04-04T20:43:05.860Z,12.28
2019-04-04T20:46:02.924Z,11.05
2019-04-04T20:48:59.425Z,13.77
2019-04-04T20:51:57.112Z,11.53
2019-04-04T20:54:53.570Z,11.50
2019-04-04T20:57:49.495Z,11.33
2019-04-04T21:00:46.169Z,13.23
2019-04-04T21:03:42.754Z,10.60
2019-04-04T21:06:38.504Z,11.28
2019-04-04T21:09:35.646Z,12.28
2019-04-04T21:12:32.582Z,12.63
2019-04-04T21:15:29.348Z,13.55
2019-04-04T21:18:26.170Z,15.08
2019-04-04T21:21:22.847Z,15.10
2019-04-04T21:24:18.297Z,16.43
2019-04-04T21:27:14.984Z,16.32
2019-04-04T21:30:11.708Z,14.73
2019-04-04T21:33:07.698Z,18.17
2019-04-04T21:36:04.202Z,17.35
2019-04-04T21:39:00.443Z,17.67
2019-04-04T21:41:57.782Z,18.70
2019-04-04T21:44:54.460Z,17.20
2019-04-04T21:47:50.602Z,13.50
2019-04-04T21:50:47.432Z,17.75
2019-04-04T21:53:44.167Z,13.28
2019-04-04T21:56:40.936Z,13.98
2019-04-04T21:59:37.551Z,12.23
2019-04-04T22:02:34.071Z,13.53
2019-04-04T22:05:31.019Z,14.70
2019-04-04T22:08:27.430Z,12.60
2019-04-04T22:11:24.114Z,14.50
2019-04-04T22:14:22.300Z,13.60
2019-04-04T22:17:21.783Z,12.07
2019-04-04T22:20:17.949Z,13.70
2019-04-04T22:23:13.961Z,17.00
2019-04-04T22:26:11.615Z,14.87
2019-04-04T22:29:08.840Z,26.12
2019-04-04T22:32:05.692Z,14.38
2019-04-04T22:35:01.953Z,16.17
2019-04-04T22:37:58.664Z,14.00
2019-04-04T22:40:54.741Z,15.85
2019-04-04T22:44:02.661Z,11.15
2019-04-04T22:46:48.160Z,14.18
2019-04-04T22:49:44.916Z,11.80
2019-04-04T22:52:41.631Z,13.65
2019-04-04T22:55:38.671Z,13.75
2019-04-04T22:58:35.157Z,11.97
2019-04-04T23:01:32.113Z,14.25
2019-04-04T23:04:28.645Z,12.37
2019-04-04T23:07:24.576Z,12.03
2019-04-04T23:10:21.245Z,12.25
2019-04-04T23:13:19.232Z,11.65
2019-04-04T23:16:16.211Z,13.50
2019-04-04T23:19:12.709Z,13.85
2019-04-04T23:22:10.799Z,13.32
2019-04-04T23:25:08.561Z,12.13
2019-04-04T23:28:05.168Z,12.90
2019-04-04T23:31:01.899Z,19.17
2019-04-04T23:33:58.506Z,41.40
2019-04-04T23:36:54.277Z,52.43
2019-04-04T23:39:51.086Z,68.02
2019-04-04T23:42:47.058Z,78.50
2019-04-04T23:45:45.517Z,89.75
2019-04-04T23:48:42.339Z,90.32
2019-04-04T23:51:38.315Z,95.07
2019-04-04T23:54:34.826Z,101.55
2019-04-04T23:57:31.348Z,99.07
